sensor_id;sensor_type;location;lat;lon;timestamp;P1;durP1;ratioP1;P2;durP2;ratioP2
19396;SDS011;9834;48.076;11.878;2023-05-25T00:01:27;5.97;;;4.80;;
19396;SDS011;9834;48.076;11.878;2023-05-25T00:03:54;11.83;;;6.23;;
19396;SDS011;9834;48.076;11.878;2023-05-25T00:06:25;10.43;;;5.73;;
19396;SDS011;9834;48.076;11.878;2023-05-25T00:08:54;7.30;;;6.07;;
19396;SDS011;9834;48.076;11.878;2023-05-25T00:11:21;5.57;;;5.03;;
19396;SDS011;9834;48.076;11.878;2023-05-25T00:13:49;7.97;;;6.50;;
19396;SDS011;9834;48.076;11.878;2023-05-25T00:16:17;7.83;;;6.30;;
19396;SDS011;9834;48.076;11.878;2023-05-25T00:18:44;8.50;;;6.23;;
19396;SDS011;9834;48.076;11.878;2023-05-25T00:21:12;6.50;;;5.77;;
19396;SDS011;9834;48.076;11.878;2023-05-25T00:23:41;9.17;;;6.13;;
19396;SDS011;9834;48.076;11.878;2023-05-25T00:26:08;8.63;;;7.63;;
19396;SDS011;9834;48.076;11.878;2023-05-25T00:28:35;12.13;;;7.83;;
19396;SDS011;9834;48.076;11.878;2023-05-25T00:31:02;9.37;;;6.60;;
19396;SDS011;9834;48.076;11.878;2023-05-25T00:33:29;6.57;;;5.97;;
19396;SDS011;9834;48.076;11.878;2023-05-25T00:35:56;10.23;;;7.23;;
19396;SDS011;9834;48.076;11.878;2023-05-25T00:38:24;8.33;;;6.73;;
19396;SDS011;9834;48.076;11.878;2023-05-25T00:40:54;9.67;;;7.83;;
19396;SDS011;9834;48.076;11.878;2023-05-25T00:43:21;9.37;;;6.53;;
19396;SDS011;9834;48.076;11.878;2023-05-25T00:45:49;6.03;;;5.43;;
19396;SDS011;9834;48.076;11.878;2023-05-25T00:48:16;6.90;;;6.30;;
19396;SDS011;9834;48.076;11.878;2023-05-25T00:50:43;8.77;;;5.87;;
19396;SDS011;9834;48.076;11.878;2023-05-25T00:53:11;9.67;;;7.87;;
19396;SDS011;9834;48.076;11.878;2023-05-25T00:55:40;7.60;;;6.27;;
19396;SDS011;9834;48.076;11.878;2023-05-25T00:58:13;9.10;;;6.67;;
19396;SDS011;9834;48.076;11.878;2023-05-25T01:00:43;12.13;;;6.67;;
19396;SDS011;9834;48.076;11.878;2023-05-25T01:03:13;10.67;;;7.67;;
19396;SDS011;9834;48.076;11.878;2023-05-25T01:05:46;11.03;;;7.13;;
19396;SDS011;9834;48.076;11.878;2023-05-25T01:08:15;13.03;;;7.60;;
19396;SDS011;9834;48.076;11.878;2023-05-25T01:10:45;13.10;;;9.70;;
19396;SDS011;9834;48.076;11.878;2023-05-25T01:13:16;10.33;;;8.13;;
19396;SDS011;9834;48.076;11.878;2023-05-25T01:15:45;8.00;;;7.00;;
19396;SDS011;9834;48.076;11.878;2023-05-25T01:18:13;11.03;;;7.77;;
19396;SDS011;9834;48.076;11.878;2023-05-25T01:20:50;11.47;;;7.80;;
19396;SDS011;9834;48.076;11.878;2023-05-25T01:23:21;11.60;;;8.73;;
19396;SDS011;9834;48.076;11.878;2023-05-25T01:25:56;13.47;;;8.73;;
19396;SDS011;9834;48.076;11.878;2023-05-25T01:28:27;9.83;;;7.73;;
19396;SDS011;9834;48.076;11.878;2023-05-25T01:30:59;11.30;;;8.57;;
19396;SDS011;9834;48.076;11.878;2023-05-25T01:33:27;9.17;;;7.90;;
19396;SDS011;9834;48.076;11.878;2023-05-25T01:35:57;13.50;;;8.67;;
19396;SDS011;9834;48.076;11.878;2023-05-25T01:38:25;13.40;;;9.20;;
19396;SDS011;9834;48.076;11.878;2023-05-25T01:40:54;10.70;;;7.87;;
19396;SDS011;9834;48.076;11.878;2023-05-25T01:43:21;11.67;;;8.83;;
19396;SDS011;9834;48.076;11.878;2023-05-25T01:45:48;13.50;;;7.13;;
19396;SDS011;9834;48.076;11.878;2023-05-25T01:48:19;15.67;;;8.33;;
19396;SDS011;9834;48.076;11.878;2023-05-25T01:50:53;9.77;;;7.90;;
19396;SDS011;9834;48.076;11.878;2023-05-25T01:53:28;11.27;;;9.23;;
19396;SDS011;9834;48.076;11.878;2023-05-25T01:55:58;11.10;;;9.03;;
19396;SDS011;9834;48.076;11.878;2023-05-25T01:58:28;13.63;;;9.60;;
19396;SDS011;9834;48.076;11.878;2023-05-25T02:01:00;14.67;;;10.33;;
19396;SDS011;9834;48.076;11.878;2023-05-25T02:03:28;15.87;;;11.00;;
19396;SDS011;9834;48.076;11.878;2023-05-25T02:05:55;13.03;;;10.63;;
19396;SDS011;9834;48.076;11.878;2023-05-25T02:08:22;15.63;;;10.43;;
19396;SDS011;9834;48.076;11.878;2023-05-25T02:10:51;12.97;;;10.30;;
19396;SDS011;9834;48.076;11.878;2023-05-25T02:13:18;17.10;;;9.70;;
19396;SDS011;9834;48.076;11.878;2023-05-25T02:15:45;11.43;;;9.60;;
19396;SDS011;9834;48.076;11.878;2023-05-25T02:18:12;16.57;;;10.90;;
19396;SDS011;9834;48.076;11.878;2023-05-25T02:20:41;13.63;;;10.40;;
19396;SDS011;9834;48.076;11.878;2023-05-25T02:23:11;17.77;;;10.63;;
19396;SDS011;9834;48.076;11.878;2023-05-25T02:25:38;16.73;;;12.37;;
19396;SDS011;9834;48.076;11.878;2023-05-25T02:28:09;12.57;;;9.10;;
19396;SDS011;9834;48.076;11.878;2023-05-25T02:30:36;13.10;;;9.07;;
19396;SDS011;9834;48.076;11.878;2023-05-25T02:33:03;13.07;;;9.33;;
19396;SDS011;9834;48.076;11.878;2023-05-25T02:35:31;21.47;;;9.17;;
19396;SDS011;9834;48.076;11.878;2023-05-25T02:37:58;14.87;;;10.33;;
19396;SDS011;9834;48.076;11.878;2023-05-25T02:40:25;12.27;;;9.73;;
19396;SDS011;9834;48.076;11.878;2023-05-25T02:42:52;15.70;;;10.67;;
19396;SDS011;9834;48.076;11.878;2023-05-25T02:45:21;10.10;;;8.57;;
19396;SDS011;9834;48.076;11.878;2023-05-25T02:47:48;16.80;;;9.73;;
19396;SDS011;9834;48.076;11.878;2023-05-25T02:50:15;11.70;;;8.97;;
19396;SDS011;9834;48.076;11.878;2023-05-25T02:52:42;14.37;;;9.60;;
19396;SDS011;9834;48.076;11.878;2023-05-25T02:55:10;12.73;;;9.33;;
19396;SDS011;9834;48.076;11.878;2023-05-25T02:57:37;9.80;;;7.53;;
19396;SDS011;9834;48.076;11.878;2023-05-25T03:00:05;13.40;;;9.57;;
19396;SDS011;9834;48.076;11.878;2023-05-25T03:02:37;13.47;;;8.37;;
19396;SDS011;9834;48.076;11.878;2023-05-25T03:05:04;9.93;;;7.87;;
19396;SDS011;9834;48.076;11.878;2023-05-25T03:07:31;15.33;;;7.90;;
19396;SDS011;9834;48.076;11.878;2023-05-25T03:09:58;12.37;;;9.37;;
19396;SDS011;9834;48.076;11.878;2023-05-25T03:12:25;10.23;;;7.73;;
19396;SDS011;9834;48.076;11.878;2023-05-25T03:14:52;11.03;;;8.67;;
19396;SDS011;9834;48.076;11.878;2023-05-25T03:17:19;10.07;;;7.73;;
19396;SDS011;9834;48.076;11.878;2023-05-25T03:19:48;9.37;;;7.33;;
19396;SDS011;9834;48.076;11.878;2023-05-25T03:22:14;11.37;;;8.37;;
19396;SDS011;9834;48.076;11.878;2023-05-25T03:24:42;9.17;;;6.57;;
19396;SDS011;9834;48.076;11.878;2023-05-25T03:27:09;10.47;;;6.60;;
19396;SDS011;9834;48.076;11.878;2023-05-25T03:29:36;8.03;;;7.23;;
19396;SDS011;9834;48.076;11.878;2023-05-25T03:32:03;9.53;;;7.83;;
19396;SDS011;9834;48.076;11.878;2023-05-25T03:34:30;9.63;;;7.00;;
19396;SDS011;9834;48.076;11.878;2023-05-25T03:37:00;9.80;;;6.80;;
19396;SDS011;9834;48.076;11.878;2023-05-25T03:39:27;16.00;;;8.07;;
19396;SDS011;9834;48.076;11.878;2023-05-25T03:41:54;15.00;;;7.97;;
19396;SDS011;9834;48.076;11.878;2023-05-25T03:44:22;8.77;;;7.40;;
19396;SDS011;9834;48.076;11.878;2023-05-25T03:46:49;13.97;;;7.40;;
19396;SDS011;9834;48.076;11.878;2023-05-25T03:49:16;13.77;;;8.30;;
19396;SDS011;9834;48.076;11.878;2023-05-25T03:51:43;13.20;;;7.23;;
19396;SDS011;9834;48.076;11.878;2023-05-25T03:54:12;9.00;;;6.73;;
19396;SDS011;9834;48.076;11.878;2023-05-25T03:56:39;11.37;;;7.47;;
19396;SDS011;9834;48.076;11.878;2023-05-25T03:59:06;11.07;;;7.33;;
19396;SDS011;9834;48.076;11.878;2023-05-25T04:01:33;8.67;;;7.00;;
19396;SDS011;9834;48.076;11.878;2023-05-25T04:04:02;11.40;;;7.20;;
19396;SDS011;9834;48.076;11.878;2023-05-25T04:06:29;9.73;;;7.43;;
19396;SDS011;9834;48.076;11.878;2023-05-25T04:08:56;15.47;;;6.17;;
19396;SDS011;9834;48.076;11.878;2023-05-25T04:14:15;12.90;;;6.97;;
19396;SDS011;9834;48.076;11.878;2023-05-25T04:16:44;10.13;;;7.33;;
19396;SDS011;9834;48.076;11.878;2023-05-25T04:19:12;11.33;;;7.30;;
19396;SDS011;9834;48.076;11.878;2023-05-25T04:21:39;8.17;;;6.93;;
19396;SDS011;9834;48.076;11.878;2023-05-25T04:24:06;9.73;;;6.87;;
19396;SDS011;9834;48.076;11.878;2023-05-25T04:26:33;8.40;;;6.47;;
19396;SDS011;9834;48.076;11.878;2023-05-25T04:29:02;9.50;;;7.67;;
19396;SDS011;9834;48.076;11.878;2023-05-25T04:31:28;8.50;;;7.23;;
19396;SDS011;9834;48.076;11.878;2023-05-25T04:33:55;9.03;;;7.57;;
19396;SDS011;9834;48.076;11.878;2023-05-25T04:36:23;11.20;;;6.90;;
19396;SDS011;9834;48.076;11.878;2023-05-25T04:38:50;9.10;;;6.40;;
19396;SDS011;9834;48.076;11.878;2023-05-25T04:41:18;10.27;;;6.63;;
19396;SDS011;9834;48.076;11.878;2023-05-25T04:43:46;11.97;;;7.67;;
19396;SDS011;9834;48.076;11.878;2023-05-25T04:46:16;7.70;;;6.23;;
19396;SDS011;9834;48.076;11.878;2023-05-25T04:48:43;11.70;;;6.70;;
19396;SDS011;9834;48.076;11.878;2023-05-25T04:51:10;8.17;;;6.50;;
19396;SDS011;9834;48.076;11.878;2023-05-25T04:53:37;9.77;;;7.37;;
19396;SDS011;9834;48.076;11.878;2023-05-25T04:56:04;8.53;;;6.97;;
19396;SDS011;9834;48.076;11.878;2023-05-25T04:58:32;11.13;;;6.93;;
19396;SDS011;9834;48.076;11.878;2023-05-25T05:00:59;8.20;;;6.27;;
19396;SDS011;9834;48.076;11.878;2023-05-25T05:03:27;9.70;;;7.33;;
19396;SDS011;9834;48.076;11.878;2023-05-25T05:05:54;9.87;;;6.20;;
19396;SDS011;9834;48.076;11.878;2023-05-25T05:08:22;7.53;;;6.30;;
19396;SDS011;9834;48.076;11.878;2023-05-25T05:10:49;8.00;;;6.87;;
19396;SDS011;9834;48.076;11.878;2023-05-25T05:13:16;9.07;;;6.47;;
19396;SDS011;9834;48.076;11.878;2023-05-25T05:15:42;10.37;;;6.67;;
19396;SDS011;9834;48.076;11.878;2023-05-25T05:18:10;7.67;;;6.23;;
19396;SDS011;9834;48.076;11.878;2023-05-25T05:20:39;12.93;;;7.30;;
19396;SDS011;9834;48.076;11.878;2023-05-25T05:23:06;13.73;;;7.23;;
19396;SDS011;9834;48.076;11.878;2023-05-25T05:25:33;8.10;;;6.10;;
19396;SDS011;9834;48.076;11.878;2023-05-25T05:28:02;12.87;;;6.30;;
19396;SDS011;9834;48.076;11.878;2023-05-25T05:30:29;8.27;;;6.07;;
19396;SDS011;9834;48.076;11.878;2023-05-25T05:32:56;8.93;;;6.40;;
19396;SDS011;9834;48.076;11.878;2023-05-25T05:35:23;9.00;;;7.17;;
19396;SDS011;9834;48.076;11.878;2023-05-25T05:37:52;18.63;;;7.20;;
19396;SDS011;9834;48.076;11.878;2023-05-25T05:40:19;12.83;;;7.07;;
19396;SDS011;9834;48.076;11.878;2023-05-25T05:42:46;7.00;;;6.30;;
19396;SDS011;9834;48.076;11.878;2023-05-25T05:45:13;16.73;;;7.27;;
19396;SDS011;9834;48.076;11.878;2023-05-25T05:47:40;8.13;;;6.53;;
19396;SDS011;9834;48.076;11.878;2023-05-25T05:50:07;11.00;;;7.70;;
19396;SDS011;9834;48.076;11.878;2023-05-25T05:52:35;7.93;;;6.97;;
19396;SDS011;9834;48.076;11.878;2023-05-25T05:55:03;9.23;;;6.53;;
19396;SDS011;9834;48.076;11.878;2023-05-25T05:57:31;9.93;;;7.63;;
19396;SDS011;9834;48.076;11.878;2023-05-25T05:59:59;7.63;;;6.77;;
19396;SDS011;9834;48.076;11.878;2023-05-25T06:02:27;7.97;;;6.97;;
19396;SDS011;9834;48.076;11.878;2023-05-25T06:04:54;12.70;;;7.13;;
19396;SDS011;9834;48.076;11.878;2023-05-25T06:07:21;7.67;;;6.77;;
19396;SDS011;9834;48.076;11.878;2023-05-25T06:09:48;8.17;;;6.80;;
19396;SDS011;9834;48.076;11.878;2023-05-25T06:12:17;10.17;;;7.47;;
19396;SDS011;9834;48.076;11.878;2023-05-25T06:14:43;9.77;;;7.30;;
19396;SDS011;9834;48.076;11.878;2023-05-25T06:17:13;12.33;;;7.73;;
19396;SDS011;9834;48.076;11.878;2023-05-25T06:19:40;11.13;;;7.40;;
19396;SDS011;9834;48.076;11.878;2023-05-25T06:22:08;10.50;;;7.97;;
19396;SDS011;9834;48.076;11.878;2023-05-25T06:24:35;10.73;;;7.97;;
19396;SDS011;9834;48.076;11.878;2023-05-25T06:27:02;8.20;;;7.03;;
19396;SDS011;9834;48.076;11.878;2023-05-25T06:29:30;10.77;;;7.50;;
19396;SDS011;9834;48.076;11.878;2023-05-25T06:31:57;9.17;;;7.30;;
19396;SDS011;9834;48.076;11.878;2023-05-25T06:34:25;11.27;;;7.13;;
19396;SDS011;9834;48.076;11.878;2023-05-25T06:36:52;9.80;;;6.97;;
19396;SDS011;9834;48.076;11.878;2023-05-25T06:39:19;10.23;;;6.73;;
19396;SDS011;9834;48.076;11.878;2023-05-25T06:41:45;13.93;;;7.10;;
19396;SDS011;9834;48.076;11.878;2023-05-25T06:44:13;10.20;;;6.53;;
19396;SDS011;9834;48.076;11.878;2023-05-25T06:46:41;8.47;;;6.63;;
19396;SDS011;9834;48.076;11.878;2023-05-25T06:49:08;10.07;;;6.60;;
19396;SDS011;9834;48.076;11.878;2023-05-25T06:51:35;10.90;;;6.70;;
19396;SDS011;9834;48.076;11.878;2023-05-25T06:54:02;13.27;;;7.17;;
19396;SDS011;9834;48.076;11.878;2023-05-25T06:56:29;8.70;;;7.17;;
19396;SDS011;9834;48.076;11.878;2023-05-25T06:58:56;7.00;;;6.30;;
19396;SDS011;9834;48.076;11.878;2023-05-25T07:01:25;7.37;;;6.53;;
19396;SDS011;9834;48.076;11.878;2023-05-25T07:03:53;11.77;;;7.53;;
19396;SDS011;9834;48.076;11.878;2023-05-25T07:06:20;8.90;;;7.07;;
19396;SDS011;9834;48.076;11.878;2023-05-25T07:08:47;13.70;;;7.57;;
19396;SDS011;9834;48.076;11.878;2023-05-25T07:11:15;8.03;;;6.90;;
19396;SDS011;9834;48.076;11.878;2023-05-25T07:13:44;10.43;;;7.57;;
19396;SDS011;9834;48.076;11.878;2023-05-25T07:16:11;11.17;;;7.03;;
19396;SDS011;9834;48.076;11.878;2023-05-25T07:18:39;12.83;;;7.97;;
19396;SDS011;9834;48.076;11.878;2023-05-25T07:21:07;10.03;;;7.30;;
19396;SDS011;9834;48.076;11.878;2023-05-25T07:23:34;16.33;;;6.87;;
19396;SDS011;9834;48.076;11.878;2023-05-25T07:26:01;9.23;;;7.67;;
19396;SDS011;9834;48.076;11.878;2023-05-25T07:28:28;9.20;;;7.47;;
19396;SDS011;9834;48.076;11.878;2023-05-25T07:30:55;14.43;;;6.97;;
19396;SDS011;9834;48.076;11.878;2023-05-25T07:33:22;7.13;;;5.90;;
19396;SDS011;9834;48.076;11.878;2023-05-25T07:35:49;10.27;;;7.73;;
19396;SDS011;9834;48.076;11.878;2023-05-25T07:38:18;7.50;;;5.97;;
19396;SDS011;9834;48.076;11.878;2023-05-25T07:40:45;9.50;;;6.73;;
19396;SDS011;9834;48.076;11.878;2023-05-25T07:43:13;10.77;;;8.20;;
19396;SDS011;9834;48.076;11.878;2023-05-25T07:45:40;9.23;;;6.57;;
19396;SDS011;9834;48.076;11.878;2023-05-25T07:48:07;8.13;;;7.03;;
19396;SDS011;9834;48.076;11.878;2023-05-25T07:50:34;8.70;;;7.40;;
19396;SDS011;9834;48.076;11.878;2023-05-25T07:53:01;9.47;;;7.23;;
19396;SDS011;9834;48.076;11.878;2023-05-25T07:55:29;9.23;;;7.23;;
19396;SDS011;9834;48.076;11.878;2023-05-25T07:57:56;14.80;;;7.67;;
19396;SDS011;9834;48.076;11.878;2023-05-25T08:00:23;8.40;;;6.30;;
19396;SDS011;9834;48.076;11.878;2023-05-25T08:02:50;9.63;;;7.40;;
19396;SDS011;9834;48.076;11.878;2023-05-25T08:05:17;14.97;;;7.27;;
19396;SDS011;9834;48.076;11.878;2023-05-25T08:07:44;8.87;;;6.20;;
19396;SDS011;9834;48.076;11.878;2023-05-25T08:10:11;8.30;;;6.50;;
19396;SDS011;9834;48.076;11.878;2023-05-25T08:12:40;6.60;;;5.87;;
19396;SDS011;9834;48.076;11.878;2023-05-25T08:15:07;7.90;;;6.03;;
19396;SDS011;9834;48.076;11.878;2023-05-25T08:17:34;7.50;;;6.33;;
19396;SDS011;9834;48.076;11.878;2023-05-25T08:20:01;7.63;;;5.93;;
19396;SDS011;9834;48.076;11.878;2023-05-25T08:22:34;6.90;;;5.70;;
19396;SDS011;9834;48.076;11.878;2023-05-25T08:25:01;6.77;;;5.97;;
19396;SDS011;9834;48.076;11.878;2023-05-25T08:27:32;8.43;;;5.90;;
19396;SDS011;9834;48.076;11.878;2023-05-25T08:30:00;6.03;;;5.17;;
19396;SDS011;9834;48.076;11.878;2023-05-25T08:32:27;7.80;;;5.60;;
19396;SDS011;9834;48.076;11.878;2023-05-25T08:34:54;7.43;;;5.80;;
19396;SDS011;9834;48.076;11.878;2023-05-25T08:37:21;6.13;;;4.60;;
19396;SDS011;9834;48.076;11.878;2023-05-25T08:39:49;7.13;;;4.47;;
19396;SDS011;9834;48.076;11.878;2023-05-25T08:42:16;10.63;;;6.07;;
19396;SDS011;9834;48.076;11.878;2023-05-25T08:44:43;6.33;;;5.60;;
19396;SDS011;9834;48.076;11.878;2023-05-25T08:47:12;7.60;;;4.83;;
19396;SDS011;9834;48.076;11.878;2023-05-25T08:49:43;6.83;;;5.43;;
19396;SDS011;9834;48.076;11.878;2023-05-25T08:52:12;4.77;;;4.20;;
19396;SDS011;9834;48.076;11.878;2023-05-25T08:54:42;9.17;;;4.87;;
19396;SDS011;9834;48.076;11.878;2023-05-25T08:57:11;4.60;;;4.00;;
19396;SDS011;9834;48.076;11.878;2023-05-25T08:59:42;5.57;;;4.83;;
19396;SDS011;9834;48.076;11.878;2023-05-25T09:05:00;4.93;;;4.45;;
19396;SDS011;9834;48.076;11.878;2023-05-25T09:07:27;4.80;;;4.28;;
19396;SDS011;9834;48.076;11.878;2023-05-25T09:09:55;6.07;;;4.85;;
19396;SDS011;9834;48.076;11.878;2023-05-25T09:12:25;6.13;;;4.60;;
19396;SDS011;9834;48.076;11.878;2023-05-25T09:14:55;5.77;;;3.93;;
19396;SDS011;9834;48.076;11.878;2023-05-25T09:17:23;4.77;;;4.27;;
19396;SDS011;9834;48.076;11.878;2023-05-25T09:19:51;4.20;;;3.90;;
19396;SDS011;9834;48.076;11.878;2023-05-25T09:22:19;8.02;;;4.25;;
19396;SDS011;9834;48.076;11.878;2023-05-25T09:24:46;8.13;;;4.80;;
19396;SDS011;9834;48.076;11.878;2023-05-25T09:27:15;4.50;;;3.90;;
19396;SDS011;9834;48.076;11.878;2023-05-25T09:29:45;4.43;;;3.72;;
19396;SDS011;9834;48.076;11.878;2023-05-25T09:32:14;4.03;;;3.65;;
19396;SDS011;9834;48.076;11.878;2023-05-25T09:34:43;4.47;;;3.65;;
19396;SDS011;9834;48.076;11.878;2023-05-25T09:37:13;7.10;;;4.72;;
19396;SDS011;9834;48.076;11.878;2023-05-25T09:39:43;7.43;;;3.92;;
19396;SDS011;9834;48.076;11.878;2023-05-25T09:42:11;4.45;;;3.33;;
19396;SDS011;9834;48.076;11.878;2023-05-25T09:44:38;4.65;;;4.00;;
19396;SDS011;9834;48.076;11.878;2023-05-25T09:47:06;4.38;;;3.97;;
19396;SDS011;9834;48.076;11.878;2023-05-25T09:49:34;3.97;;;3.67;;
19396;SDS011;9834;48.076;11.878;2023-05-25T09:52:01;4.50;;;3.97;;
19396;SDS011;9834;48.076;11.878;2023-05-25T09:54:30;5.78;;;3.80;;
19396;SDS011;9834;48.076;11.878;2023-05-25T09:56:58;6.05;;;4.05;;
19396;SDS011;9834;48.076;11.878;2023-05-25T09:59:27;5.87;;;4.30;;
19396;SDS011;9834;48.076;11.878;2023-05-25T10:01:55;6.13;;;4.20;;
19396;SDS011;9834;48.076;11.878;2023-05-25T10:04:23;4.00;;;3.67;;
19396;SDS011;9834;48.076;11.878;2023-05-25T10:06:50;11.87;;;4.70;;
19396;SDS011;9834;48.076;11.878;2023-05-25T10:09:18;3.53;;;3.23;;
19396;SDS011;9834;48.076;11.878;2023-05-25T10:11:49;5.87;;;4.70;;
19396;SDS011;9834;48.076;11.878;2023-05-25T10:14:21;4.87;;;3.43;;
19396;SDS011;9834;48.076;11.878;2023-05-25T10:16:51;3.72;;;3.42;;
19396;SDS011;9834;48.076;11.878;2023-05-25T10:19:19;6.43;;;4.03;;
19396;SDS011;9834;48.076;11.878;2023-05-25T10:21:54;3.78;;;3.47;;
19396;SDS011;9834;48.076;11.878;2023-05-25T10:24:29;3.80;;;3.50;;
19396;SDS011;9834;48.076;11.878;2023-05-25T10:27:02;3.58;;;3.28;;
19396;SDS011;9834;48.076;11.878;2023-05-25T10:29:31;3.92;;;3.30;;
19396;SDS011;9834;48.076;11.878;2023-05-25T10:32:00;3.95;;;3.60;;
19396;SDS011;9834;48.076;11.878;2023-05-25T10:34:29;14.50;;;3.70;;
19396;SDS011;9834;48.076;11.878;2023-05-25T10:36:57;4.35;;;3.47;;
19396;SDS011;9834;48.076;11.878;2023-05-25T10:39:25;6.53;;;3.88;;
19396;SDS011;9834;48.076;11.878;2023-05-25T10:41:52;7.28;;;4.43;;
19396;SDS011;9834;48.076;11.878;2023-05-25T10:44:22;4.05;;;3.42;;
19396;SDS011;9834;48.076;11.878;2023-05-25T10:46:50;4.57;;;3.58;;
19396;SDS011;9834;48.076;11.878;2023-05-25T10:49:24;3.33;;;3.10;;
19396;SDS011;9834;48.076;11.878;2023-05-25T10:51:56;5.20;;;4.00;;
19396;SDS011;9834;48.076;11.878;2023-05-25T10:54:27;5.28;;;4.47;;
19396;SDS011;9834;48.076;11.878;2023-05-25T10:57:07;5.10;;;3.35;;
19396;SDS011;9834;48.076;11.878;2023-05-25T10:59:40;4.57;;;3.90;;
19396;SDS011;9834;48.076;11.878;2023-05-25T11:02:09;5.05;;;3.20;;
19396;SDS011;9834;48.076;11.878;2023-05-25T11:04:36;10.77;;;5.10;;
19396;SDS011;9834;48.076;11.878;2023-05-25T11:07:04;4.35;;;3.90;;
19396;SDS011;9834;48.076;11.878;2023-05-25T11:09:41;3.50;;;3.20;;
19396;SDS011;9834;48.076;11.878;2023-05-25T11:12:18;3.22;;;2.97;;
19396;SDS011;9834;48.076;11.878;2023-05-25T11:17:43;3.30;;;3.05;;
19396;SDS011;9834;48.076;11.878;2023-05-25T11:20:26;5.35;;;3.13;;
19396;SDS011;9834;48.076;11.878;2023-05-25T11:22:55;5.05;;;3.42;;
19396;SDS011;9834;48.076;11.878;2023-05-25T11:25:40;7.13;;;4.15;;
19396;SDS011;9834;48.076;11.878;2023-05-25T11:28:08;7.35;;;3.67;;
19396;SDS011;9834;48.076;11.878;2023-05-25T11:30:38;4.13;;;3.47;;
19396;SDS011;9834;48.076;11.878;2023-05-25T11:33:07;5.97;;;3.45;;
19396;SDS011;9834;48.076;11.878;2023-05-25T11:35:34;3.58;;;3.28;;
19396;SDS011;9834;48.076;11.878;2023-05-25T11:38:03;2.80;;;2.47;;
19396;SDS011;9834;48.076;11.878;2023-05-25T11:40:31;3.05;;;2.75;;
19396;SDS011;9834;48.076;11.878;2023-05-25T11:42:59;3.28;;;2.97;;
19396;SDS011;9834;48.076;11.878;2023-05-25T11:45:28;4.10;;;3.33;;
19396;SDS011;9834;48.076;11.878;2023-05-25T11:47:58;3.63;;;2.85;;
19396;SDS011;9834;48.076;11.878;2023-05-25T11:50:25;4.32;;;3.20;;
19396;SDS011;9834;48.076;11.878;2023-05-25T11:52:53;3.53;;;3.25;;
19396;SDS011;9834;48.076;11.878;2023-05-25T11:55:20;3.55;;;3.22;;
19396;SDS011;9834;48.076;11.878;2023-05-25T11:57:53;4.22;;;3.47;;
19396;SDS011;9834;48.076;11.878;2023-05-25T12:00:24;4.45;;;3.38;;
19396;SDS011;9834;48.076;11.878;2023-05-25T12:02:52;4.95;;;3.42;;
19396;SDS011;9834;48.076;11.878;2023-05-25T12:05:21;4.78;;;2.83;;
19396;SDS011;9834;48.076;11.878;2023-05-25T12:07:49;3.42;;;2.70;;
19396;SDS011;9834;48.076;11.878;2023-05-25T12:10:16;3.63;;;2.92;;
19396;SDS011;9834;48.076;11.878;2023-05-25T12:12:43;4.90;;;3.38;;
19396;SDS011;9834;48.076;11.878;2023-05-25T12:15:11;2.85;;;2.47;;
19396;SDS011;9834;48.076;11.878;2023-05-25T12:17:40;3.50;;;3.20;;
19396;SDS011;9834;48.076;11.878;2023-05-25T12:20:09;3.20;;;2.90;;
19396;SDS011;9834;48.076;11.878;2023-05-25T12:22:38;4.05;;;3.75;;
19396;SDS011;9834;48.076;11.878;2023-05-25T12:25:06;3.30;;;3.00;;
19396;SDS011;9834;48.076;11.878;2023-05-25T12:27:34;4.38;;;3.97;;
19396;SDS011;9834;48.076;11.878;2023-05-25T12:30:02;3.58;;;3.13;;
19396;SDS011;9834;48.076;11.878;2023-05-25T12:32:30;4.03;;;3.40;;
19396;SDS011;9834;48.076;11.878;2023-05-25T12:35:00;6.25;;;3.22;;
19396;SDS011;9834;48.076;11.878;2023-05-25T12:37:28;3.85;;;3.47;;
19396;SDS011;9834;48.076;11.878;2023-05-25T12:39:57;3.10;;;2.80;;
19396;SDS011;9834;48.076;11.878;2023-05-25T12:42:24;3.80;;;2.75;;
19396;SDS011;9834;48.076;11.878;2023-05-25T12:44:53;3.13;;;2.85;;
19396;SDS011;9834;48.076;11.878;2023-05-25T12:47:24;2.88;;;2.67;;
19396;SDS011;9834;48.076;11.878;2023-05-25T12:50:08;5.13;;;3.70;;
19396;SDS011;9834;48.076;11.878;2023-05-25T12:52:37;3.05;;;2.67;;
19396;SDS011;9834;48.076;11.878;2023-05-25T12:57:57;2.83;;;2.53;;
19396;SDS011;9834;48.076;11.878;2023-05-25T13:00:26;3.35;;;3.08;;
19396;SDS011;9834;48.076;11.878;2023-05-25T13:02:56;3.97;;;2.65;;
19396;SDS011;9834;48.076;11.878;2023-05-25T13:05:25;7.65;;;2.30;;
19396;SDS011;9834;48.076;11.878;2023-05-25T13:07:54;2.13;;;1.98;;
19396;SDS011;9834;48.076;11.878;2023-05-25T13:10:22;4.22;;;3.22;;
19396;SDS011;9834;48.076;11.878;2023-05-25T13:12:51;3.25;;;2.90;;
19396;SDS011;9834;48.076;11.878;2023-05-25T13:15:22;2.88;;;2.63;;
19396;SDS011;9834;48.076;11.878;2023-05-25T13:17:50;3.20;;;2.85;;
19396;SDS011;9834;48.076;11.878;2023-05-25T13:20:19;4.15;;;2.72;;
19396;SDS011;9834;48.076;11.878;2023-05-25T13:22:49;2.83;;;2.63;;
19396;SDS011;9834;48.076;11.878;2023-05-25T13:25:17;7.70;;;2.40;;
19396;SDS011;9834;48.076;11.878;2023-05-25T13:27:46;2.85;;;2.50;;
19396;SDS011;9834;48.076;11.878;2023-05-25T13:30:16;2.85;;;2.60;;
19396;SDS011;9834;48.076;11.878;2023-05-25T13:32:44;2.63;;;2.45;;
19396;SDS011;9834;48.076;11.878;2023-05-25T13:35:11;3.45;;;2.50;;
19396;SDS011;9834;48.076;11.878;2023-05-25T13:37:43;10.05;;;3.58;;
19396;SDS011;9834;48.076;11.878;2023-05-25T13:40:11;4.13;;;2.97;;
19396;SDS011;9834;48.076;11.878;2023-05-25T13:42:38;3.00;;;2.80;;
19396;SDS011;9834;48.076;11.878;2023-05-25T13:45:06;2.88;;;2.67;;
19396;SDS011;9834;48.076;11.878;2023-05-25T13:47:35;7.82;;;2.55;;
19396;SDS011;9834;48.076;11.878;2023-05-25T13:50:02;4.43;;;2.47;;
19396;SDS011;9834;48.076;11.878;2023-05-25T13:52:29;2.83;;;2.38;;
19396;SDS011;9834;48.076;11.878;2023-05-25T13:54:56;3.20;;;2.53;;
19396;SDS011;9834;48.076;11.878;2023-05-25T13:57:23;3.20;;;2.90;;
19396;SDS011;9834;48.076;11.878;2023-05-25T13:59:50;3.47;;;3.10;;
19396;SDS011;9834;48.076;11.878;2023-05-25T14:02:17;2.97;;;2.78;;
19396;SDS011;9834;48.076;11.878;2023-05-25T14:04:45;3.60;;;3.00;;
19396;SDS011;9834;48.076;11.878;2023-05-25T14:07:12;3.13;;;2.83;;
19396;SDS011;9834;48.076;11.878;2023-05-25T14:09:39;2.80;;;2.60;;
19396;SDS011;9834;48.076;11.878;2023-05-25T14:12:06;3.95;;;2.60;;
19396;SDS011;9834;48.076;11.878;2023-05-25T14:14:33;5.20;;;3.00;;
19396;SDS011;9834;48.076;11.878;2023-05-25T14:17:00;3.60;;;3.33;;
19396;SDS011;9834;48.076;11.878;2023-05-25T14:19:27;5.90;;;3.65;;
19396;SDS011;9834;48.076;11.878;2023-05-25T14:21:56;3.35;;;3.05;;
19396;SDS011;9834;48.076;11.878;2023-05-25T14:24:23;4.65;;;2.50;;
19396;SDS011;9834;48.076;11.878;2023-05-25T14:26:50;3.67;;;2.85;;
19396;SDS011;9834;48.076;11.878;2023-05-25T14:29:17;2.80;;;2.60;;
19396;SDS011;9834;48.076;11.878;2023-05-25T14:31:44;3.38;;;3.17;;
19396;SDS011;9834;48.076;11.878;2023-05-25T14:34:11;6.22;;;3.33;;
19396;SDS011;9834;48.076;11.878;2023-05-25T14:36:38;4.95;;;3.10;;
19396;SDS011;9834;48.076;11.878;2023-05-25T14:39:06;3.22;;;2.20;;
19396;SDS011;9834;48.076;11.878;2023-05-25T14:41:33;3.03;;;2.72;;
19396;SDS011;9834;48.076;11.878;2023-05-25T14:44:00;4.88;;;3.25;;
19396;SDS011;9834;48.076;11.878;2023-05-25T14:46:27;3.17;;;2.88;;
19396;SDS011;9834;48.076;11.878;2023-05-25T14:48:54;3.72;;;2.88;;
19396;SDS011;9834;48.076;11.878;2023-05-25T14:51:21;3.70;;;3.35;;
19396;SDS011;9834;48.076;11.878;2023-05-25T14:53:49;12.73;;;3.30;;
19396;SDS011;9834;48.076;11.878;2023-05-25T14:56:19;3.35;;;3.10;;
19396;SDS011;9834;48.076;11.878;2023-05-25T14:58:47;3.83;;;3.05;;
19396;SDS011;9834;48.076;11.878;2023-05-25T15:01:14;2.95;;;2.75;;